METAR Formatted Surface Weather Observation
Issued by NWS San Juan, PR

Home | Current Version | Previous Version | Text Only | Print | Product List | Glossary On
Versions: 1
000
SAUS42 TJSJ 251857
MTRSJU
METAR TIST 251853Z 12014KT 10SM FEW030 31/26 A2991 RMK AO2 SLP128
T03060256


USA.gov is the U.S. government's official web portal to all federal, state and local government web resources and services.